Terminal Aerodrome Forecast
Issued by NWS Blacksburg, VA

Current Version | Previous Version | Text Only | Print | Product List | Glossary Off
Versions: 1 2 3 4 5 6 7 8 9 10 11 12 13 14 15 16 17 18

000
FTUS41 KRNK 261720
TAFBLF
TAF
KBLF 261720Z 2618/2718 17007KT P6SM SCT015 BKN040
      TEMPO 2618/2620 BKN020
     FM270700 VRB03KT P6SM SCT025
     FM271600 23004KT P6SM BKN035=

USA.gov is the U.S. government's official web portal to all federal, state and local government web resources and services.